メインページ
METAR-TAF:

METAR-TAF

空港 :

モントリオール・ピエール・エリオット・トルドー国際空港

モントリオール・トルドー, ケベック州, カナダ

緯度: 45-28N, 経度: 073-45W, 海抜: 31m

現時点の気象観測

当レポートは15分前の18:00(UTC)に作成
南/南西の風 9kt
気温 30°C
湿度 46%
気圧 1018 hPa
視程: 24.1km
高度5000ftの雲はほとんどない
高度15000ftの雲はほとんどない

METAR: CYUL 261800Z 21009KT 15SM FEW050 FEW150 30/17 A3006 RMK CF1AC1 AC TR SLP182 DENSITY ALT 1800FT

時間: 14:15 (18:15 UTC)

予報

当レポートは37分前の17:38(UTC)に作成
予報は26日の 18時(UTC)から 27日の 18時(UTC)まで有効
南西の風 12kt
視程: 10km
高度5000ftの雲は散在している
26日の 20時(UTC)から 26日の 24時(UTC)まで一時的に
視程: 10km
高度5000ftの千切れ雲あり, 積乱雲.
近辺で激しい雷雨
27日の 0200時(UTC)から
南東の風 5kt
視程: 10km
高度8000ftの雲はほとんどない
高度24000ftの雲はほとんどない
27日の 1600時(UTC)から
南西の風 12kt
視程: 10km
高度6000ftの雲は散在している

TAF: CYUL 261738Z 2618/2718 22012KT P6SM SCT050 TEMPO 2620/2624 P6SM VCTS BKN050CB FM270200 14005KT P6SM FEW080 FEW240 FM271600 22012KT P6SM SCT060 RMK NXT FCST BY 262100Z

4,000以上の空港の気象観測と天気予報(METAR報とTAF報)

利用可能な観測所は地図上に黄色い丸と赤い丸で示す。

丸の上にカーソルを重ねると観測所名を参照できる。

次にクリックすると気象観測と天気予報を参照できる。

マップの切り替え:黒色「×」印の緑ボタンをクリックして拡大、「-」印の緑ボタンをクリックして縮小、緑色の三角印をクリックして隣りの地図に切り替え


METAR-TAF: